Time;durP1;ratioP1;P1;durP2;ratioP2;P2;SDS_P1;SDS_P2;PMS_P1;PMS_P2;Temp;Humidity;BMP_temperature;BMP_pressure;BME280_temperature;BME280_humidity;BME280_pressure;Samples;Min_cycle;Max_cycle;Signal;HPM_P1;HPM_P2
2022/09/21 00:01:30;;;;;;;3.20;1.50;;;;;;;;;;5031467;28;20063;-70
2022/09/21 00:03:58;;;;;;;3.00;1.55;;;;;;;;;;5032568;28;20042;-70
2022/09/21 00:06:25;;;;;;;5.47;1.58;;;;;;;;;;5030699;28;20045;-70
2022/09/21 00:08:51;;;;;;;3.45;1.60;;;;;;;;;;5030800;28;20053;-70
2022/09/21 00:11:19;;;;;;;3.50;1.40;;;;;;;;;;5034532;28;20044;-70
2022/09/21 00:13:46;;;;;;;3.70;1.30;;;;;;;;;;5018175;28;20076;-70
2022/09/21 00:16:13;;;;;;;2.88;1.00;;;;;;;;;;5027706;28;20049;-70
2022/09/21 00:18:39;;;;;;;4.57;1.60;;;;;;;;;;5033660;28;20036;-70
2022/09/21 00:21:07;;;;;;;4.35;1.60;;;;;;;;;;5027923;28;20129;-70
2022/09/21 00:23:34;;;;;;;2.83;1.00;;;;;;;;;;5034958;28;20459;-70
2022/09/21 00:26:06;;;;;;;2.88;0.85;;;;;;;;;;5032987;28;20053;-70
2022/09/21 00:28:32;;;;;;;5.25;1.10;;;;;;;;;;5030814;28;20091;-70
2022/09/21 00:31:03;;;;;;;2.60;0.90;;;;;;;;;;5031018;28;20052;-70
2022/09/21 00:33:29;;;;;;;2.80;1.30;;;;;;;;;;5031144;28;20053;-70
2022/09/21 00:35:55;;;;;;;3.15;1.02;;;;;;;;;;5036036;28;20099;-70
2022/09/21 00:38:21;;;;;;;4.68;1.45;;;;;;;;;;5029799;28;20120;-70
2022/09/21 00:40:48;;;;;;;2.35;1.00;;;;;;;;;;5030198;28;20173;-70
2022/09/21 00:43:15;;;;;;;4.68;1.52;;;;;;;;;;5031448;28;22555;-70
2022/09/21 00:45:42;;;;;;;5.53;1.83;;;;;;;;;;5031565;28;20041;-70
2022/09/21 00:48:09;;;;;;;5.20;1.60;;;;;;;;;;5032846;28;20473;-70
2022/09/21 00:50:36;;;;;;;3.28;1.80;;;;;;;;;;5028456;28;20072;-70
2022/09/21 00:53:04;;;;;;;8.10;1.80;;;;;;;;;;5036199;28;20053;-70
2022/09/21 00:55:36;;;;;;;8.40;1.55;;;;;;;;;;5030492;28;20063;-70
2022/09/21 00:58:09;;;;;;;2.65;1.20;;;;;;;;;;5034444;28;20067;-70
2022/09/21 01:00:36;;;;;;;6.95;1.40;;;;;;;;;;5028714;28;20144;-70
2022/09/21 01:03:03;;;;;;;15.35;1.48;;;;;;;;;;5027880;28;20127;-70
2022/09/21 01:05:29;;;;;;;14.30;2.05;;;;;;;;;;5026994;28;20127;-70
2022/09/21 01:07:58;;;;;;;28.95;2.75;;;;;;;;;;5031310;28;20068;-70
2022/09/21 01:10:26;;;;;;;3.05;1.65;;;;;;;;;;5037082;28;20120;-70
2022/09/21 01:12:52;;;;;;;2.80;1.50;;;;;;;;;;5035845;28;20066;-70
2022/09/21 01:15:25;;;;;;;4.10;1.83;;;;;;;;;;5037020;28;20107;-70
2022/09/21 01:18:04;;;;;;;3.45;1.70;;;;;;;;;;5032460;28;20128;-70
2022/09/21 01:20:35;;;;;;;6.63;2.70;;;;;;;;;;5033966;28;20067;-70
2022/09/21 01:23:07;;;;;;;5.57;2.20;;;;;;;;;;5029590;28;20108;-70
2022/09/21 01:25:42;;;;;;;16.25;1.92;;;;;;;;;;5029348;28;20453;-70
2022/09/21 01:28:15;;;;;;;39.45;2.88;;;;;;;;;;5031827;28;20053;-70
2022/09/21 01:30:42;;;;;;;50.95;4.28;;;;;;;;;;5037038;28;20036;-70
2022/09/21 01:33:13;;;;;;;119.55;5.03;;;;;;;;;;5039661;28;20486;-70
2022/09/21 01:35:43;;;;;;;61.05;3.50;;;;;;;;;;5039358;28;20128;-70
2022/09/21 01:38:14;;;;;;;160.15;5.57;;;;;;;;;;5036479;28;20193;-70
2022/09/21 01:40:43;;;;;;;53.13;2.75;;;;;;;;;;5032715;28;20057;-70
2022/09/21 01:43:12;;;;;;;52.45;2.58;;;;;;;;;;5029328;28;20037;-70
2022/09/21 01:45:40;;;;;;;15.93;1.40;;;;;;;;;;5028650;28;20052;-70
2022/09/21 01:48:07;;;;;;;20.55;1.60;;;;;;;;;;5036125;28;20463;-70
2022/09/21 01:50:37;;;;;;;2.47;1.10;;;;;;;;;;5041963;28;20144;-70
2022/09/21 01:53:06;;;;;;;2.83;1.25;;;;;;;;;;5041049;28;20049;-70
2022/09/21 01:55:38;;;;;;;3.33;1.70;;;;;;;;;;5032330;28;20043;-70
2022/09/21 01:58:10;;;;;;;3.58;1.73;;;;;;;;;;5032253;28;20053;-70
2022/09/21 02:00:38;;;;;;;3.95;1.73;;;;;;;;;;5029971;28;20052;-70
2022/09/21 02:03:09;;;;;;;5.15;1.77;;;;;;;;;;5030499;28;20815;-70
2022/09/21 02:05:35;;;;;;;7.97;1.98;;;;;;;;;;5032435;28;20053;-70
2022/09/21 02:08:01;;;;;;;2.83;1.45;;;;;;;;;;5032409;28;20495;-70
2022/09/21 02:10:31;;;;;;;3.80;1.10;;;;;;;;;;5030733;28;20052;-70
2022/09/21 02:13:00;;;;;;;2.35;1.30;;;;;;;;;;5035520;28;20051;-70
2022/09/21 02:15:31;;;;;;;3.17;1.38;;;;;;;;;;5026147;28;20136;-70
2022/09/21 02:18:06;;;;;;;5.82;1.63;;;;;;;;;;5035579;28;20045;-70
2022/09/21 02:20:39;;;;;;;5.75;1.73;;;;;;;;;;5031429;28;20057;-70
2022/09/21 02:23:08;;;;;;;4.57;1.88;;;;;;;;;;5029755;28;20045;-70
2022/09/21 02:25:41;;;;;;;7.13;2.60;;;;;;;;;;5035551;28;20052;-70
2022/09/21 02:28:10;;;;;;;6.20;1.40;;;;;;;;;;5037142;28;20200;-70
2022/09/21 02:30:36;;;;;;;5.90;1.40;;;;;;;;;;5033643;28;20044;-70
2022/09/21 02:33:10;;;;;;;38.20;2.60;;;;;;;;;;5034865;28;20116;-70
2022/09/21 02:35:58;;;;;;;113.95;3.95;;;;;;;;;;5040811;28;20052;-70
2022/09/21 02:38:35;;;;;;;41.25;2.47;;;;;;;;;;5038861;28;20087;-70
2022/09/21 02:41:08;;;;;;;20.17;1.65;;;;;;;;;;5030253;28;20123;-70
2022/09/21 02:43:36;;;;;;;40.67;2.78;;;;;;;;;;5030065;28;20053;-70
2022/09/21 02:46:07;;;;;;;147.77;5.68;;;;;;;;;;5042396;28;20077;-70
2022/09/21 02:48:39;;;;;;;167.82;5.75;;;;;;;;;;5038811;28;20044;-71
2022/09/21 02:51:08;;;;;;;87.00;4.07;;;;;;;;;;5033274;28;20056;-70
2022/09/21 02:53:35;;;;;;;81.72;3.63;;;;;;;;;;5039799;28;20045;-70
2022/09/21 02:56:06;;;;;;;23.75;1.95;;;;;;;;;;5034373;28;20684;-70
2022/09/21 02:58:34;;;;;;;52.67;2.13;;;;;;;;;;5043189;28;20060;-70
2022/09/21 03:01:00;;;;;;;60.10;2.58;;;;;;;;;;5033185;28;20041;-70
2022/09/21 03:03:27;;;;;;;50.03;2.53;;;;;;;;;;5032809;28;20061;-69
2022/09/21 03:05:54;;;;;;;33.80;2.22;;;;;;;;;;5028733;28;20045;-70
2022/09/21 03:08:21;;;;;;;74.75;3.05;;;;;;;;;;5032864;28;20100;-70
2022/09/21 03:10:48;;;;;;;45.35;2.63;;;;;;;;;;5033831;28;22093;-70
2022/09/21 03:13:15;;;;;;;31.63;1.85;;;;;;;;;;5030685;28;20079;-69
2022/09/21 03:15:41;;;;;;;37.45;2.10;;;;;;;;;;5030734;28;20480;-70
2022/09/21 03:18:10;;;;;;;40.20;1.85;;;;;;;;;;5028568;28;20045;-70
2022/09/21 03:20:36;;;;;;;21.58;1.77;;;;;;;;;;5031734;28;20508;-70
2022/09/21 03:23:02;;;;;;;31.73;2.28;;;;;;;;;;5026702;28;20060;-70
2022/09/21 03:25:29;;;;;;;37.60;2.28;;;;;;;;;;5031506;28;20045;-70
2022/09/21 03:27:56;;;;;;;55.22;2.67;;;;;;;;;;5064381;28;20036;-70
2022/09/21 03:30:23;;;;;;;37.58;2.38;;;;;;;;;;5026462;28;20056;-70
2022/09/21 03:32:50;;;;;;;34.83;2.95;;;;;;;;;;5036504;28;20041;-70
2022/09/21 03:35:17;;;;;;;20.25;1.98;;;;;;;;;;5032311;28;20085;-70
2022/09/21 03:37:44;;;;;;;33.28;2.55;;;;;;;;;;5034246;28;20042;-70
2022/09/21 03:40:11;;;;;;;6.05;1.30;;;;;;;;;;5029611;28;20072;-70
2022/09/21 03:42:38;;;;;;;2.17;1.10;;;;;;;;;;5031828;28;20053;-70
2022/09/21 03:45:04;;;;;;;3.08;1.20;;;;;;;;;;5037622;28;20049;-70
2022/09/21 03:47:31;;;;;;;2.10;1.02;;;;;;;;;;5035032;28;20056;-70
2022/09/21 03:49:57;;;;;;;1.60;0.90;;;;;;;;;;5034426;28;20060;-70
2022/09/21 03:52:24;;;;;;;3.13;1.02;;;;;;;;;;5031884;28;20041;-70
2022/09/21 03:54:50;;;;;;;3.83;1.20;;;;;;;;;;5033497;28;20087;-70
2022/09/21 03:57:16;;;;;;;2.30;0.75;;;;;;;;;;5030396;28;20056;-70
2022/09/21 03:59:42;;;;;;;1.58;0.73;;;;;;;;;;5033635;28;20466;-70
2022/09/21 04:02:08;;;;;;;1.00;0.55;;;;;;;;;;5034656;28;20128;-69
2022/09/21 04:04:34;;;;;;;1.55;0.70;;;;;;;;;;5042851;28;20073;-70
2022/09/21 04:07:01;;;;;;;5.93;0.82;;;;;;;;;;5040058;28;20053;-70
2022/09/21 04:09:27;;;;;;;3.38;1.17;;;;;;;;;;5040469;28;20069;-69
2022/09/21 04:11:53;;;;;;;6.72;1.40;;;;;;;;;;5029590;28;20055;-70
2022/09/21 04:14:21;;;;;;;3.90;1.52;;;;;;;;;;5036321;28;20041;-70
2022/09/21 04:16:47;;;;;;;21.92;1.70;;;;;;;;;;5034353;28;20049;-70
2022/09/21 04:19:13;;;;;;;4.25;1.30;;;;;;;;;;5036779;28;20068;-70
2022/09/21 04:21:39;;;;;;;7.03;1.35;;;;;;;;;;5044118;28;20044;-70
2022/09/21 04:24:05;;;;;;;17.92;1.60;;;;;;;;;;5040176;28;21562;-70
2022/09/21 04:26:33;;;;;;;6.55;1.60;;;;;;;;;;5026224;28;20561;-70
2022/09/21 04:28:59;;;;;;;25.05;1.88;;;;;;;;;;5042880;28;20170;-70
2022/09/21 04:31:26;;;;;;;50.83;2.20;;;;;;;;;;5031566;28;20040;-70
2022/09/21 04:33:53;;;;;;;10.65;1.30;;;;;;;;;;5035311;28;20051;-70
2022/09/21 04:36:21;;;;;;;7.80;1.10;;;;;;;;;;5040470;28;20041;-69
2022/09/21 04:38:47;;;;;;;19.70;1.67;;;;;;;;;;5040139;28;20055;-70
2022/09/21 04:41:13;;;;;;;14.10;1.40;;;;;;;;;;5046095;28;20041;-69
2022/09/21 04:43:43;;;;;;;17.98;1.80;;;;;;;;;;5052275;28;20041;-70
2022/09/21 04:46:11;;;;;;;7.93;1.42;;;;;;;;;;5054615;28;20049;-70
2022/09/21 04:48:38;;;;;;;12.00;1.10;;;;;;;;;;5049610;28;20127;-68
2022/09/21 04:51:06;;;;;;;1.92;0.70;;;;;;;;;;5049579;28;20053;-70
2022/09/21 04:53:33;;;;;;;1.48;0.70;;;;;;;;;;5046371;28;20045;-70
2022/09/21 04:55:59;;;;;;;2.10;0.70;;;;;;;;;;5047616;28;20064;-70
2022/09/21 04:58:25;;;;;;;2.17;0.80;;;;;;;;;;5051231;28;20048;-70
2022/09/21 05:00:52;;;;;;;3.58;1.30;;;;;;;;;;5041474;28;20059;-69
2022/09/21 05:03:18;;;;;;;2.97;1.40;;;;;;;;;;5023614;28;20045;-69
2022/09/21 05:05:47;;;;;;;3.75;1.50;;;;;;;;;;5045672;28;20132;-70
2022/09/21 05:08:13;;;;;;;3.67;1.50;;;;;;;;;;5040585;28;20040;-70
2022/09/21 05:10:39;;;;;;;2.95;1.30;;;;;;;;;;5042627;28;20390;-71
2022/09/21 05:13:05;;;;;;;3.80;1.20;;;;;;;;;;5034753;28;20070;-71
2022/09/21 05:15:31;;;;;;;2.85;1.45;;;;;;;;;;5041512;28;20127;-70
2022/09/21 05:17:58;;;;;;;5.35;1.40;;;;;;;;;;5044178;28;20143;-69
2022/09/21 05:20:24;;;;;;;4.20;1.08;;;;;;;;;;5040525;28;20107;-69
2022/09/21 05:22:50;;;;;;;4.65;1.80;;;;;;;;;;5042697;28;20060;-70
2022/09/21 05:25:16;;;;;;;3.42;1.30;;;;;;;;;;5040159;28;20047;-67
2022/09/21 05:27:42;;;;;;;2.72;1.40;;;;;;;;;;5051640;28;20552;-67
2022/09/21 05:30:09;;;;;;;4.78;1.02;;;;;;;;;;5042940;28;20048;-67
2022/09/21 05:32:39;;;;;;;2.00;1.00;;;;;;;;;;5049609;28;20044;-69
2022/09/21 05:35:12;;;;;;;4.00;0.98;;;;;;;;;;5048111;28;20045;-68
2022/09/21 05:37:43;;;;;;;3.65;2.10;;;;;;;;;;5048615;28;20557;-68
2022/09/21 05:40:10;;;;;;;2.25;0.80;;;;;;;;;;5044725;28;20059;-67
2022/09/21 05:42:36;;;;;;;1.85;0.80;;;;;;;;;;5057174;28;20075;-67
2022/09/21 05:45:03;;;;;;;3.72;0.90;;;;;;;;;;5063750;28;20082;-67
2022/09/21 05:47:38;;;;;;;1.95;0.80;;;;;;;;;;5062127;28;20116;-67
2022/09/21 05:50:18;;;;;;;3.17;1.00;;;;;;;;;;5043932;28;20136;-67
2022/09/21 05:52:48;;;;;;;4.05;1.20;;;;;;;;;;5045611;28;20502;-66
2022/09/21 05:55:33;;;;;;;2.25;0.90;;;;;;;;;;5048892;28;20036;-67
2022/09/21 05:58:05;;;;;;;6.30;1.30;;;;;;;;;;5045519;28;20132;-67
2022/09/21 06:00:40;;;;;;;2.45;1.00;;;;;;;;;;5048127;28;20434;-66
2022/09/21 06:03:26;;;;;;;2.08;0.88;;;;;;;;;;5040169;28;20441;-67
2022/09/21 06:05:52;;;;;;;4.90;1.10;;;;;;;;;;5051789;28;20049;-67
2022/09/21 06:08:18;;;;;;;2.17;1.20;;;;;;;;;;5048809;28;20044;-68
2022/09/21 06:10:44;;;;;;;6.03;1.30;;;;;;;;;;5055865;28;20078;-67
2022/09/21 06:13:11;;;;;;;2.70;1.40;;;;;;;;;;5055503;28;20056;-68
2022/09/21 06:15:37;;;;;;;5.55;1.45;;;;;;;;;;5061336;28;20435;-68
2022/09/21 06:18:04;;;;;;;3.45;1.50;;;;;;;;;;5048907;28;20481;-68
2022/09/21 06:20:31;;;;;;;5.90;1.30;;;;;;;;;;5044384;28;20181;-67
2022/09/21 06:23:01;;;;;;;3.13;1.23;;;;;;;;;;5057236;28;20503;-67
2022/09/21 06:25:27;;;;;;;3.67;1.20;;;;;;;;;;5043404;28;20061;-67
2022/09/21 06:27:53;;;;;;;3.60;1.10;;;;;;;;;;5059338;28;20071;-67
2022/09/21 06:30:19;;;;;;;3.88;1.67;;;;;;;;;;5050413;28;20057;-67
2022/09/21 06:32:45;;;;;;;4.03;1.63;;;;;;;;;;5049890;28;20097;-67
2022/09/21 06:35:12;;;;;;;3.85;1.55;;;;;;;;;;5054228;28;20127;-67
2022/09/21 06:37:40;;;;;;;3.42;1.70;;;;;;;;;;5059509;28;20370;-68
2022/09/21 06:40:07;;;;;;;6.18;2.20;;;;;;;;;;5056047;28;20127;-67
2022/09/21 06:42:33;;;;;;;5.15;2.30;;;;;;;;;;5054610;28;20037;-67
2022/09/21 06:44:59;;;;;;;5.00;2.05;;;;;;;;;;5053788;28;20044;-67
2022/09/21 06:47:25;;;;;;;6.40;2.92;;;;;;;;;;5041064;28;20061;-67
2022/09/21 06:49:53;;;;;;;5.68;2.63;;;;;;;;;;5053439;28;20112;-67
2022/09/21 06:52:19;;;;;;;5.03;2.42;;;;;;;;;;5057544;28;20381;-68
2022/09/21 06:54:45;;;;;;;22.45;3.70;;;;;;;;;;5057377;28;20466;-68
2022/09/21 06:57:11;;;;;;;8.32;3.55;;;;;;;;;;5054889;28;20496;-68
2022/09/21 06:59:37;;;;;;;7.95;3.35;;;;;;;;;;5048812;28;20415;-67
2022/09/21 07:02:03;;;;;;;8.45;3.05;;;;;;;;;;5053005;28;20550;-68
2022/09/21 07:04:30;;;;;;;7.25;3.33;;;;;;;;;;5048540;28;20044;-68
2022/09/21 07:06:57;;;;;;;6.68;3.30;;;;;;;;;;5057553;28;20079;-68
2022/09/21 07:09:23;;;;;;;6.03;3.22;;;;;;;;;;5060106;28;20041;-68
2022/09/21 07:11:49;;;;;;;7.50;3.97;;;;;;;;;;5033418;28;20053;-67
2022/09/21 07:14:16;;;;;;;8.68;3.90;;;;;;;;;;5051222;28;20055;-68
2022/09/21 07:16:42;;;;;;;7.03;4.40;;;;;;;;;;5056803;28;20484;-68
2022/09/21 07:19:08;;;;;;;8.88;4.30;;;;;;;;;;5049993;28;20045;-68
2022/09/21 07:21:34;;;;;;;13.32;4.63;;;;;;;;;;5043112;28;20080;-68
2022/09/21 07:24:01;;;;;;;7.63;4.20;;;;;;;;;;5036511;28;20049;-68
2022/09/21 07:26:27;;;;;;;9.18;3.88;;;;;;;;;;5057263;28;20400;-68
2022/09/21 07:28:53;;;;;;;11.07;4.82;;;;;;;;;;5057289;28;20041;-68
2022/09/21 07:31:19;;;;;;;12.73;3.97;;;;;;;;;;5043034;28;20577;-68
2022/09/21 07:33:46;;;;;;;10.80;4.38;;;;;;;;;;5059994;28;20423;-68
2022/09/21 07:36:12;;;;;;;14.52;4.25;;;;;;;;;;5052849;28;20044;-68
2022/09/21 07:38:39;;;;;;;11.10;3.63;;;;;;;;;;5057961;28;20485;-68
2022/09/21 07:41:06;;;;;;;13.65;3.88;;;;;;;;;;5054523;28;20041;-68
2022/09/21 07:43:33;;;;;;;6.75;3.38;;;;;;;;;;5055135;28;20067;-68
2022/09/21 07:46:00;;;;;;;8.45;3.53;;;;;;;;;;5058167;28;20492;-66
2022/09/21 07:48:27;;;;;;;11.43;3.42;;;;;;;;;;5057598;28;20045;-69
2022/09/21 07:50:56;;;;;;;8.63;3.25;;;;;;;;;;5061079;28;20056;-68
2022/09/21 07:53:22;;;;;;;8.93;3.22;;;;;;;;;;5059613;28;20040;-69
2022/09/21 07:55:48;;;;;;;13.40;3.58;;;;;;;;;;5057214;28;20045;-67
2022/09/21 08:01:05;;;;;;;13.70;3.60;;;;;;;;;;5051397;28;20049;-67
2022/09/21 08:03:31;;;;;;;4.85;2.85;;;;;;;;;;5062713;28;20063;-67
2022/09/21 08:05:59;;;;;;;9.65;3.17;;;;;;;;;;5059527;28;20076;-68
2022/09/21 08:08:25;;;;;;;10.90;3.78;;;;;;;;;;5059535;28;20080;-68
2022/09/21 08:10:53;;;;;;;10.48;3.05;;;;;;;;;;5058279;28;20051;-68
2022/09/21 08:13:19;;;;;;;11.73;2.05;;;;;;;;;;5061896;28;20041;-68
2022/09/21 08:15:46;;;;;;;12.52;2.38;;;;;;;;;;5062274;28;20040;-68
2022/09/21 08:18:12;;;;;;;7.07;2.10;;;;;;;;;;5054457;28;20048;-68
2022/09/21 08:20:38;;;;;;;9.50;1.95;;;;;;;;;;5055132;28;20050;-68
2022/09/21 08:23:04;;;;;;;10.85;1.98;;;;;;;;;;5056670;28;20123;-68
2022/09/21 08:25:33;;;;;;;13.93;2.13;;;;;;;;;;5049867;28;20115;-69
2022/09/21 08:27:59;;;;;;;6.88;1.95;;;;;;;;;;5057697;28;20408;-68
2022/09/21 08:30:27;;;;;;;13.77;1.77;;;;;;;;;;5061849;28;20123;-68
2022/09/21 08:32:53;;;;;;;8.15;1.40;;;;;;;;;;5053869;28;20123;-69
2022/09/21 08:35:20;;;;;;;9.70;1.80;;;;;;;;;;5057099;28;20387;-69
2022/09/21 08:37:46;;;;;;;8.20;1.50;;;;;;;;;;5062136;28;20041;-69
2022/09/21 08:40:15;;;;;;;14.88;3.22;;;;;;;;;;5060728;28;20363;-69
2022/09/21 08:42:44;;;;;;;11.30;1.90;;;;;;;;;;5057364;28;20113;-69
2022/09/21 08:45:14;;;;;;;7.85;1.77;;;;;;;;;;5064298;28;20109;-69
2022/09/21 08:47:43;;;;;;;9.70;2.15;;;;;;;;;;5059419;28;20481;-68
2022/09/21 08:50:24;;;;;;;12.25;2.25;;;;;;;;;;5052668;28;20059;-69
2022/09/21 08:52:52;;;;;;;20.52;4.28;;;;;;;;;;5055062;28;20563;-69
2022/09/21 08:55:19;;;;;;;8.57;1.92;;;;;;;;;;5058271;28;20056;-69
2022/09/21 08:57:45;;;;;;;4.45;1.30;;;;;;;;;;5063475;28;20060;-68
2022/09/21 09:00:14;;;;;;;8.48;1.40;;;;;;;;;;5056952;28;20048;-69
2022/09/21 09:03:06;;;;;;;10.20;1.33;;;;;;;;;;5054497;28;20040;-69
2022/09/21 09:05:47;;;;;;;10.10;1.67;;;;;;;;;;5051255;28;20071;-68
2022/09/21 09:08:19;;;;;;;13.13;3.40;;;;;;;;;;5046359;28;20156;-69
2022/09/21 09:10:45;;;;;;;8.82;1.33;;;;;;;;;;5057443;28;20036;-69
2022/09/21 09:13:18;;;;;;;7.15;1.00;;;;;;;;;;5057075;28;20549;-69
2022/09/21 09:15:56;;;;;;;9.63;2.03;;;;;;;;;;5057953;28;20044;-69
2022/09/21 09:18:35;;;;;;;6.28;1.20;;;;;;;;;;5053111;28;20045;-68
2022/09/21 09:21:05;;;;;;;7.75;1.30;;;;;;;;;;5056442;28;20133;-69
2022/09/21 09:23:34;;;;;;;6.30;1.10;;;;;;;;;;5055021;28;20602;-68
2022/09/21 09:26:03;;;;;;;7.35;1.27;;;;;;;;;;5049639;28;20041;-68
2022/09/21 09:28:33;;;;;;;7.55;1.90;;;;;;;;;;5056925;28;20119;-68
2022/09/21 09:31:04;;;;;;;6.20;1.02;;;;;;;;;;5054347;28;20092;-68
2022/09/21 09:33:39;;;;;;;7.50;1.83;;;;;;;;;;5052872;28;20047;-68
2022/09/21 09:36:05;;;;;;;7.15;1.35;;;;;;;;;;5059494;28;20523;-68
2022/09/21 09:38:34;;;;;;;5.78;1.15;;;;;;;;;;5056668;28;20112;-68
2022/09/21 09:41:19;;;;;;;8.25;1.88;;;;;;;;;;5058724;28;20133;-67
2022/09/21 09:44:04;;;;;;;11.25;1.48;;;;;;;;;;5061808;28;20040;-69
2022/09/21 09:46:44;;;;;;;5.65;1.15;;;;;;;;;;5056656;28;20669;-66
2022/09/21 09:49:28;;;;;;;8.13;1.38;;;;;;;;;;5054293;28;20041;-65
2022/09/21 09:51:54;;;;;;;8.23;1.70;;;;;;;;;;5057082;28;20049;-66
2022/09/21 09:54:21;;;;;;;10.18;1.33;;;;;;;;;;5062096;28;20117;-65
2022/09/21 09:56:48;;;;;;;5.32;1.10;;;;;;;;;;5058499;28;20049;-65
2022/09/21 09:59:24;;;;;;;6.45;1.63;;;;;;;;;;5060802;28;20049;-66
2022/09/21 10:01:59;;;;;;;6.13;1.73;;;;;;;;;;5056564;28;20080;-65
2022/09/21 10:04:25;;;;;;;5.25;1.05;;;;;;;;;;5060500;28;20044;-65
2022/09/21 10:06:51;;;;;;;8.70;1.48;;;;;;;;;;5060316;28;20377;-65
2022/09/21 10:09:22;;;;;;;9.43;1.85;;;;;;;;;;5058069;28;20087;-66
2022/09/21 10:11:48;;;;;;;8.25;1.25;;;;;;;;;;5058608;28;20044;-66
2022/09/21 10:14:18;;;;;;;8.65;1.52;;;;;;;;;;5058255;28;20064;-66
2022/09/21 10:16:44;;;;;;;8.02;1.70;;;;;;;;;;5053596;28;20049;-66
2022/09/21 10:19:18;;;;;;;6.50;1.40;;;;;;;;;;5047955;28;20073;-66
2022/09/21 10:21:45;;;;;;;6.75;1.13;;;;;;;;;;5057311;28;20064;-66
2022/09/21 10:24:16;;;;;;;6.85;1.80;;;;;;;;;;5054012;28;20049;-66
2022/09/21 10:26:46;;;;;;;9.25;1.00;;;;;;;;;;5053958;28;20049;-66
2022/09/21 10:29:22;;;;;;;6.90;2.17;;;;;;;;;;5059470;28;20094;-66
2022/09/21 10:31:54;;;;;;;9.20;1.25;;;;;;;;;;5058608;28;20086;-66
2022/09/21 10:34:21;;;;;;;7.53;1.10;;;;;;;;;;5056848;28;20148;-66
2022/09/21 10:36:55;;;;;;;3.28;1.15;;;;;;;;;;5054051;28;20583;-66
2022/09/21 10:39:25;;;;;;;6.28;1.08;;;;;;;;;;5033202;28;20053;-66
2022/09/21 10:41:53;;;;;;;7.13;1.10;;;;;;;;;;5057793;28;20083;-66
2022/09/21 10:44:22;;;;;;;6.13;1.20;;;;;;;;;;5059328;28;20049;-66
2022/09/21 10:46:49;;;;;;;4.63;0.80;;;;;;;;;;5058307;28;20054;-66
2022/09/21 10:49:22;;;;;;;7.07;1.15;;;;;;;;;;5059395;28;20041;-66
2022/09/21 10:51:50;;;;;;;4.35;1.40;;;;;;;;;;5056477;28;20041;-66
2022/09/21 10:54:20;;;;;;;5.00;1.10;;;;;;;;;;5058169;28;20407;-66
2022/09/21 10:56:51;;;;;;;7.10;1.17;;;;;;;;;;5053933;28;20407;-66
2022/09/21 10:59:18;;;;;;;5.90;1.10;;;;;;;;;;5056283;28;20052;-67
2022/09/21 11:01:47;;;;;;;3.97;0.82;;;;;;;;;;5053709;28;20105;-65
2022/09/21 11:04:17;;;;;;;7.05;1.20;;;;;;;;;;5055161;28;20056;-66
2022/09/21 11:06:46;;;;;;;5.15;1.20;;;;;;;;;;5046792;28;20481;-66
2022/09/21 11:09:22;;;;;;;4.07;1.27;;;;;;;;;;5049909;28;20053;-66
2022/09/21 11:11:52;;;;;;;7.05;1.30;;;;;;;;;;5061042;28;20503;-66
2022/09/21 11:14:18;;;;;;;6.07;1.27;;;;;;;;;;5048090;28;20052;-66
2022/09/21 11:16:52;;;;;;;7.18;1.30;;;;;;;;;;5063704;28;20045;-64
2022/09/21 11:19:33;;;;;;;7.47;1.05;;;;;;;;;;5052647;28;20128;-64
2022/09/21 11:22:04;;;;;;;7.03;1.23;;;;;;;;;;5059373;28;20049;-64
2022/09/21 11:24:30;;;;;;;4.70;0.98;;;;;;;;;;5058984;28;20396;-64
2022/09/21 11:27:02;;;;;;;6.05;1.40;;;;;;;;;;5061687;28;20073;-65
2022/09/21 11:29:34;;;;;;;6.75;1.55;;;;;;;;;;5055786;28;20090;-65
2022/09/21 11:32:16;;;;;;;8.65;1.20;;;;;;;;;;5048507;28;20088;-64
2022/09/21 11:34:43;;;;;;;6.00;0.98;;;;;;;;;;5053409;28;20090;-64
2022/09/21 11:37:23;;;;;;;4.07;1.27;;;;;;;;;;5055027;28;20041;-64
2022/09/21 11:39:49;;;;;;;6.38;0.93;;;;;;;;;;5053758;28;20045;-64
2022/09/21 11:42:23;;;;;;;4.43;1.13;;;;;;;;;;5053808;28;20037;-64
2022/09/21 11:44:57;;;;;;;4.18;1.27;;;;;;;;;;5058684;28;20086;-64
2022/09/21 11:47:33;;;;;;;4.78;0.95;;;;;;;;;;5053369;28;20125;-65
2022/09/21 11:50:06;;;;;;;2.88;0.70;;;;;;;;;;5049174;28;20131;-64
2022/09/21 11:52:46;;;;;;;5.03;0.95;;;;;;;;;;5056990;28;20083;-64
2022/09/21 11:55:12;;;;;;;4.60;0.82;;;;;;;;;;5058487;28;20508;-64
2022/09/21 11:57:44;;;;;;;5.57;0.98;;;;;;;;;;5055708;28;20053;-64
2022/09/21 12:00:14;;;;;;;4.93;1.27;;;;;;;;;;5043759;28;20076;-64
2022/09/21 12:02:59;;;;;;;4.00;0.80;;;;;;;;;;5056490;28;20052;-64
2022/09/21 12:05:36;;;;;;;5.82;1.08;;;;;;;;;;5055700;28;20041;-64
2022/09/21 12:08:09;;;;;;;4.00;1.00;;;;;;;;;;5057656;28;20046;-65
2022/09/21 12:10:43;;;;;;;4.55;1.02;;;;;;;;;;5057734;28;20056;-64
2022/09/21 12:13:16;;;;;;;5.63;1.17;;;;;;;;;;5058857;28;20041;-64
2022/09/21 12:15:44;;;;;;;3.08;0.70;;;;;;;;;;5056050;28;20041;-64
2022/09/21 12:18:24;;;;;;;4.72;1.08;;;;;;;;;;5058243;28;20471;-65
2022/09/21 12:20:56;;;;;;;3.63;0.77;;;;;;;;;;5055931;28;20154;-65
2022/09/21 12:23:30;;;;;;;4.10;0.90;;;;;;;;;;5058916;28;20071;-65
2022/09/21 12:25:58;;;;;;;3.40;0.73;;;;;;;;;;5057532;28;20041;-65
2022/09/21 12:28:28;;;;;;;4.47;0.70;;;;;;;;;;5061010;28;20079;-65
2022/09/21 12:30:57;;;;;;;4.78;0.90;;;;;;;;;;5057252;28;20049;-64
2022/09/21 12:33:34;;;;;;;4.65;1.00;;;;;;;;;;5058189;28;20085;-64
2022/09/21 12:36:03;;;;;;;4.43;1.00;;;;;;;;;;5058590;28;20480;-64
2022/09/21 12:38:31;;;;;;;4.15;0.70;;;;;;;;;;5061705;28;20960;-64
2022/09/21 12:41:01;;;;;;;8.13;1.48;;;;;;;;;;5062679;28;20480;-64
2022/09/21 12:43:28;;;;;;;4.20;1.05;;;;;;;;;;5059196;28;20120;-64
2022/09/21 12:45:57;;;;;;;3.88;0.88;;;;;;;;;;5063000;28;21285;-64
2022/09/21 12:48:29;;;;;;;5.70;1.10;;;;;;;;;;5062070;28;20440;-64
2022/09/21 12:50:58;;;;;;;4.28;0.90;;;;;;;;;;5059221;28;20143;-64
2022/09/21 12:53:26;;;;;;;3.78;0.95;;;;;;;;;;5062038;28;20068;-64
2022/09/21 12:56:00;;;;;;;3.58;0.80;;;;;;;;;;5061086;28;20480;-64
2022/09/21 12:58:29;;;;;;;4.45;0.90;;;;;;;;;;5059728;28;20131;-64
2022/09/21 13:01:13;;;;;;;3.42;0.70;;;;;;;;;;5054486;28;20079;-66
2022/09/21 13:04:04;;;;;;;6.25;0.85;;;;;;;;;;5059936;28;20044;-64
2022/09/21 13:06:47;;;;;;;6.35;1.10;;;;;;;;;;5061752;28;20392;-64
2022/09/21 13:09:16;;;;;;;3.97;0.88;;;;;;;;;;5062164;28;20080;-64
2022/09/21 13:11:53;;;;;;;5.40;0.85;;;;;;;;;;5064872;28;20087;-66
2022/09/21 13:14:20;;;;;;;3.67;0.73;;;;;;;;;;5062840;28;20045;-64
2022/09/21 13:16:52;;;;;;;4.90;1.00;;;;;;;;;;5059576;28;20056;-64
2022/09/21 13:19:23;;;;;;;4.72;0.85;;;;;;;;;;5055314;28;20053;-63
2022/09/21 13:22:18;;;;;;;4.53;0.90;;;;;;;;;;5059404;28;20437;-64
2022/09/21 13:25:00;;;;;;;5.53;0.98;;;;;;;;;;5045105;28;20105;-64
2022/09/21 13:27:44;;;;;;;4.15;0.63;;;;;;;;;;5057004;28;20492;-66
2022/09/21 13:30:27;;;;;;;3.28;0.60;;;;;;;;;;5050280;28;20067;-66
2022/09/21 13:32:54;;;;;;;5.85;1.00;;;;;;;;;;5053138;28;20040;-66
2022/09/21 13:35:50;;;;;;;4.28;0.90;;;;;;;;;;5040871;28;20060;-66
2022/09/21 13:38:25;;;;;;;4.18;1.05;;;;;;;;;;5055190;28;20551;-66
2022/09/21 13:40:59;;;;;;;4.22;0.90;;;;;;;;;;5057900;28;20388;-66
2022/09/21 13:43:45;;;;;;;5.85;1.33;;;;;;;;;;5049242;28;20083;-66
2022/09/21 13:46:31;;;;;;;4.05;0.98;;;;;;;;;;5053669;28;20052;-66
2022/09/21 13:48:58;;;;;;;6.65;1.25;;;;;;;;;;5059092;28;20040;-66
2022/09/21 13:51:24;;;;;;;3.90;1.15;;;;;;;;;;5058883;28;20064;-66
2022/09/21 13:53:55;;;;;;;5.07;0.82;;;;;;;;;;5054351;28;20106;-66
2022/09/21 13:56:23;;;;;;;4.53;0.98;;;;;;;;;;5051589;28;20132;-66
2022/09/21 13:58:51;;;;;;;3.30;0.80;;;;;;;;;;5057500;28;20045;-66
2022/09/21 14:01:20;;;;;;;3.00;0.70;;;;;;;;;;5062647;28;20048;-66
2022/09/21 14:03:49;;;;;;;7.47;0.75;;;;;;;;;;5051199;28;20059;-66
2022/09/21 14:06:17;;;;;;;6.22;0.93;;;;;;;;;;5057126;28;20052;-66
2022/09/21 14:09:00;;;;;;;5.90;1.10;;;;;;;;;;5053189;28;20052;-67
2022/09/21 14:11:32;;;;;;;4.22;0.80;;;;;;;;;;5052944;28;20087;-66
2022/09/21 14:14:13;;;;;;;4.75;0.80;;;;;;;;;;5061268;28;20044;-66
2022/09/21 14:16:43;;;;;;;33.20;3.38;;;;;;;;;;5054325;28;20056;-66
2022/09/21 14:19:15;;;;;;;18.63;1.55;;;;;;;;;;5060522;28;20155;-66
2022/09/21 14:22:00;;;;;;;5.68;0.60;;;;;;;;;;5057624;28;20064;-66
2022/09/21 14:24:37;;;;;;;6.10;0.90;;;;;;;;;;5056057;28;20374;-66
2022/09/21 14:27:24;;;;;;;41.67;2.67;;;;;;;;;;5053487;28;20051;-66
2022/09/21 14:29:52;;;;;;;33.35;3.45;;;;;;;;;;5053868;28;20045;-66
2022/09/21 14:32:22;;;;;;;6.50;1.23;;;;;;;;;;5056293;28;20048;-66
2022/09/21 14:34:49;;;;;;;14.13;1.70;;;;;;;;;;5051141;28;20049;-66
2022/09/21 14:37:26;;;;;;;4.45;0.60;;;;;;;;;;5053694;28;20051;-66
2022/09/21 14:39:53;;;;;;;4.38;0.95;;;;;;;;;;5057739;28;20484;-66
2022/09/21 14:42:22;;;;;;;2.75;0.60;;;;;;;;;;5058799;28;20110;-66
2022/09/21 14:44:50;;;;;;;3.95;0.70;;;;;;;;;;5055275;28;20852;-67
2022/09/21 14:47:27;;;;;;;8.02;0.80;;;;;;;;;;5061067;28;20044;-66
2022/09/21 14:49:53;;;;;;;3.60;0.70;;;;;;;;;;5053707;28;20120;-65
2022/09/21 14:52:19;;;;;;;6.13;0.85;;;;;;;;;;5049463;28;20485;-65
2022/09/21 14:54:58;;;;;;;5.53;0.73;;;;;;;;;;5050553;28;20507;-65
2022/09/21 14:57:47;;;;;;;3.90;0.60;;;;;;;;;;5054731;28;20052;-64
2022/09/21 15:00:22;;;;;;;4.00;0.88;;;;;;;;;;5055939;28;20091;-66